Time;durP1;ratioP1;P1;durP2;ratioP2;P2;SDS_P1;SDS_P2;PMS_P1;PMS_P2;Temp;Humidity;BMP_temperature;BMP_pressure;BME280_temperature;BME280_humidity;BME280_pressure;Samples;Min_cycle;Max_cycle;Signal;HPM_P1;HPM_P2
2021/07/18 00:00:15;;;;;;;16.67;12.90;;;24.50;79.60;;;;;;4995177;28;20371;-79
2021/07/18 00:02:41;;;;;;;20.80;13.20;;;24.50;79.60;;;;;;4995226;28;20014;-79
2021/07/18 00:05:07;;;;;;;19.35;13.98;;;24.50;79.60;;;;;;4995353;28;20050;-77
2021/07/18 00:07:33;;;;;;;20.23;14.88;;;24.50;79.60;;;;;;4994987;28;20014;-78
2021/07/18 00:09:59;;;;;;;18.13;13.38;;;24.50;79.70;;;;;;4978018;28;20387;-79
2021/07/18 00:12:25;;;;;;;19.35;12.65;;;24.50;79.70;;;;;;4995209;28;20038;-78
2021/07/18 00:14:51;;;;;;;19.80;13.15;;;24.50;79.80;;;;;;4995080;28;20036;-79
2021/07/18 00:17:17;;;;;;;20.48;13.27;;;24.50;79.90;;;;;;4978071;28;20022;-79
2021/07/18 00:19:43;;;;;;;23.60;14.45;;;24.40;79.90;;;;;;4995060;28;20026;-79
2021/07/18 00:22:09;;;;;;;26.10;15.38;;;24.40;80.00;;;;;;4977820;28;20038;-79
2021/07/18 00:24:35;;;;;;;20.33;14.32;;;24.40;80.00;;;;;;4995147;28;20105;-79
2021/07/18 00:27:01;;;;;;;21.65;14.15;;;24.40;80.10;;;;;;4995149;28;20014;-79
2021/07/18 00:29:26;;;;;;;19.10;13.85;;;24.40;80.10;;;;;;4994878;28;20037;-79
2021/07/18 00:31:53;;;;;;;19.67;13.60;;;24.30;80.10;;;;;;4977652;28;20030;-79
2021/07/18 00:34:19;;;;;;;18.50;12.05;;;24.40;80.10;;;;;;4994961;28;20026;-79
2021/07/18 00:36:44;;;;;;;18.42;13.27;;;24.40;80.20;;;;;;4994827;28;20031;-78
2021/07/18 00:39:10;;;;;;;17.88;13.18;;;24.30;80.20;;;;;;4995081;28;20031;-79
2021/07/18 00:41:36;;;;;;;21.45;13.30;;;24.30;80.20;;;;;;4998649;28;20037;-80
2021/07/18 00:44:02;;;;;;;19.77;13.43;;;24.30;80.20;;;;;;4979612;28;20065;-79
2021/07/18 00:46:28;;;;;;;24.35;13.38;;;24.30;80.30;;;;;;4995385;28;20033;-79
2021/07/18 00:48:53;;;;;;;25.00;14.15;;;24.30;80.40;;;;;;4995022;28;20019;-79
2021/07/18 00:51:19;;;;;;;19.13;13.98;;;24.30;80.50;;;;;;4995460;28;20488;-81
2021/07/18 00:53:45;;;;;;;22.63;14.77;;;24.30;80.60;;;;;;5007233;28;20030;-78
2021/07/18 00:56:11;;;;;;;21.60;13.38;;;24.30;80.70;;;;;;5005048;28;20030;-79
2021/07/18 00:58:37;;;;;;;19.88;12.50;;;24.30;80.80;;;;;;4977912;28;20034;-79
2021/07/18 01:01:03;;;;;;;21.58;13.30;;;24.20;80.80;;;;;;4995536;28;20093;-79
2021/07/18 01:03:29;;;;;;;19.83;13.32;;;24.20;80.90;;;;;;4994844;28;20101;-79
2021/07/18 01:05:55;;;;;;;20.17;12.80;;;24.30;81.00;;;;;;4977431;28;20026;-79
2021/07/18 01:08:21;;;;;;;17.17;12.85;;;24.20;81.00;;;;;;4994545;28;20460;-81
2021/07/18 01:10:47;;;;;;;15.25;12.57;;;24.20;81.10;;;;;;4977306;28;20027;-81
2021/07/18 01:13:14;;;;;;;21.40;13.38;;;24.20;81.10;;;;;;4994969;28;20048;-80
2021/07/18 01:15:40;;;;;;;15.25;12.80;;;24.20;81.20;;;;;;4994700;28;20031;-79
2021/07/18 01:18:10;;;;;;;18.48;13.02;;;24.20;81.30;;;;;;4994604;28;20026;-79
2021/07/18 01:20:37;;;;;;;25.20;14.63;;;24.20;81.40;;;;;;4977520;28;20100;-79
2021/07/18 01:23:04;;;;;;;32.00;15.27;;;24.20;81.50;;;;;;4994629;28;20033;-79
2021/07/18 01:25:32;;;;;;;25.58;15.52;;;24.20;81.60;;;;;;4994288;28;20372;-79
2021/07/18 01:27:58;;;;;;;25.45;16.13;;;24.10;81.60;;;;;;4994278;28;20026;-79
2021/07/18 01:30:24;;;;;;;32.30;18.42;;;24.10;81.60;;;;;;4994195;28;20033;-79
2021/07/18 01:32:49;;;;;;;33.00;18.98;;;24.00;81.80;;;;;;4994176;28;20026;-79
2021/07/18 01:35:15;;;;;;;37.17;20.48;;;24.00;82.00;;;;;;4993953;28;20041;-81
2021/07/18 01:37:41;;;;;;;30.88;17.83;;;24.00;82.20;;;;;;4993625;28;20386;-79
2021/07/18 01:40:10;;;;;;;26.98;15.10;;;24.00;82.40;;;;;;4976800;28;20090;-80
2021/07/18 01:42:38;;;;;;;29.15;16.50;;;24.00;82.50;;;;;;4993558;28;20024;-79
2021/07/18 01:45:05;;;;;;;30.75;18.02;;;24.00;82.60;;;;;;4993731;28;20019;-79
2021/07/18 01:47:31;;;;;;;26.25;17.10;;;24.00;82.70;;;;;;4993682;28;20376;-79
2021/07/18 01:49:57;;;;;;;27.05;16.85;;;24.00;82.80;;;;;;4993480;28;20026;-78
2021/07/18 01:52:22;;;;;;;24.40;16.23;;;23.90;82.80;;;;;;4993170;28;20381;-79
2021/07/18 01:54:48;;;;;;;28.70;16.52;;;23.90;82.90;;;;;;4993376;28;20022;-78
2021/07/18 01:57:18;;;;;;;24.42;16.00;;;23.90;83.00;;;;;;4993072;28;20022;-79
2021/07/18 01:59:45;;;;;;;28.83;16.48;;;24.00;83.20;;;;;;4992858;28;20383;-79
2021/07/18 02:02:12;;;;;;;26.17;17.08;;;23.90;83.10;;;;;;4992847;28;20022;-79
2021/07/18 02:04:38;;;;;;;21.85;14.63;;;24.00;83.20;;;;;;4975697;28;20029;-78
2021/07/18 02:07:04;;;;;;;21.15;14.68;;;24.00;83.30;;;;;;4992976;28;20023;-79
2021/07/18 02:09:34;;;;;;;16.83;13.50;;;24.00;83.30;;;;;;4993056;28;20034;-79
2021/07/18 02:11:59;;;;;;;18.58;13.10;;;24.00;83.30;;;;;;4992970;28;20456;-79
2021/07/18 02:14:25;;;;;;;18.27;14.23;;;24.00;83.30;;;;;;4992989;28;20041;-78
2021/07/18 02:16:52;;;;;;;26.58;17.45;;;24.00;83.20;;;;;;4975478;28;20420;-78
2021/07/18 02:19:18;;;;;;;28.35;15.85;;;24.00;83.30;;;;;;4992845;28;20084;-79
2021/07/18 02:21:44;;;;;;;22.73;15.32;;;24.00;83.40;;;;;;4993029;28;20023;-79
2021/07/18 02:24:10;;;;;;;21.40;14.07;;;24.10;83.60;;;;;;4992768;28;20029;-79
2021/07/18 02:26:37;;;;;;;19.98;14.27;;;24.10;83.60;;;;;;4992716;28;20022;-78
2021/07/18 02:29:04;;;;;;;21.02;14.43;;;24.30;83.70;;;;;;4992645;28;20112;-79
2021/07/18 02:31:29;;;;;;;18.10;14.27;;;24.50;83.40;;;;;;4992990;28;20031;-80
2021/07/18 02:33:55;;;;;;;22.38;13.15;;;24.70;82.90;;;;;;4993366;28;20702;-79
2021/07/18 02:36:21;;;;;;;20.38;13.30;;;25.00;82.20;;;;;;4992707;28;20036;-80
2021/07/18 02:38:47;;;;;;;14.60;13.10;;;25.40;81.40;;;;;;4992628;28;20109;-80
2021/07/18 02:41:13;;;;;;;28.00;13.43;;;25.70;80.50;;;;;;4975107;28;20483;-80
2021/07/18 02:43:40;;;;;;;21.90;14.43;;;26.10;79.50;;;;;;4992777;28;20030;-80
2021/07/18 02:46:07;;;;;;;23.80;13.07;;;26.50;78.40;;;;;;4992619;28;20026;-80
2021/07/18 02:48:35;;;;;;;19.38;12.70;;;27.00;77.10;;;;;;4992750;28;20030;-80
2021/07/18 02:51:01;;;;;;;18.98;12.48;;;27.50;75.80;;;;;;4975193;28;20065;-80
2021/07/18 02:53:26;;;;;;;22.80;14.18;;;27.90;74.50;;;;;;4992694;28;20030;-80
2021/07/18 02:55:52;;;;;;;15.55;12.63;;;28.40;73.20;;;;;;4993716;28;20073;-80
2021/07/18 02:58:18;;;;;;;20.33;13.55;;;28.90;71.90;;;;;;4976847;28;20157;-82
2021/07/18 03:00:43;;;;;;;17.92;12.80;;;29.40;70.50;;;;;;4981342;28;20030;-77
2021/07/18 03:03:10;;;;;;;21.33;13.18;;;29.90;69.10;;;;;;4993337;28;20026;-77
2021/07/18 03:05:36;;;;;;;16.27;12.52;;;30.50;67.70;;;;;;4992705;28;20035;-77
2021/07/18 03:08:01;;;;;;;17.60;13.05;;;31.00;66.30;;;;;;4992589;28;20053;-77
2021/07/18 03:10:27;;;;;;;15.48;11.98;;;31.50;65.00;;;;;;4992372;28;20100;-77
2021/07/18 03:12:53;;;;;;;15.00;12.23;;;32.00;63.90;;;;;;4974981;28;20042;-76
2021/07/18 03:15:19;;;;;;;17.27;12.00;;;32.40;62.80;;;;;;4992283;28;20161;-77
2021/07/18 03:17:45;;;;;;;16.02;11.50;;;32.90;61.60;;;;;;4992486;28;20101;-77
2021/07/18 03:20:13;;;;;;;17.30;12.23;;;33.40;60.60;;;;;;4976199;28;20392;-76
2021/07/18 03:22:40;;;;;;;15.77;11.77;;;33.90;59.50;;;;;;4995935;28;20038;-77
2021/07/18 03:25:07;;;;;;;13.80;12.18;;;34.30;58.60;;;;;;4995849;28;20369;-76
2021/07/18 03:27:33;;;;;;;18.00;11.90;;;34.80;57.70;;;;;;4995865;28;20029;-76
2021/07/18 03:29:58;;;;;;;15.52;11.75;;;35.20;56.80;;;;;;4995839;28;20030;-76
2021/07/18 03:32:24;;;;;;;14.82;12.45;;;35.60;55.90;;;;;;4995697;28;20037;-76
2021/07/18 03:34:50;;;;;;;18.38;12.10;;;36.10;55.20;;;;;;4995714;28;20484;-77
2021/07/18 03:37:16;;;;;;;19.90;11.93;;;36.50;54.30;;;;;;4996086;28;20034;-76
2021/07/18 03:39:42;;;;;;;19.55;13.68;;;36.90;53.40;;;;;;4998820;28;20035;-81
2021/07/18 03:42:08;;;;;;;19.98;13.55;;;37.40;52.70;;;;;;4979457;28;20105;-78
2021/07/18 03:44:33;;;;;;;21.75;13.90;;;37.80;52.00;;;;;;4978325;28;20109;-78
2021/07/18 03:46:59;;;;;;;19.00;12.90;;;38.20;51.40;;;;;;4995628;28;20022;-79
2021/07/18 03:49:25;;;;;;;19.75;12.98;;;38.60;50.70;;;;;;4995647;28;20441;-79
2021/07/18 03:51:51;;;;;;;25.13;16.55;;;39.00;50.20;;;;;;4995412;28;20443;-78
2021/07/18 03:54:16;;;;;;;16.45;12.68;;;39.30;49.40;;;;;;4995655;28;20036;-79
2021/07/18 03:56:42;;;;;;;17.83;11.93;;;39.70;48.90;;;;;;4978229;28;20113;-79
2021/07/18 03:59:08;;;;;;;17.20;12.93;;;40.10;48.40;;;;;;4977901;28;20483;-80
2021/07/18 04:01:33;;;;;;;20.10;13.95;;;40.50;47.80;;;;;;4995301;28;20027;-79
2021/07/18 04:03:59;;;;;;;15.10;12.52;;;40.90;47.20;;;;;;4994992;28;20404;-79
2021/07/18 04:06:25;;;;;;;20.80;12.63;;;41.30;46.80;;;;;;4995287;28;20097;-79
2021/07/18 04:08:51;;;;;;;16.63;13.32;;;41.60;46.20;;;;;;4995222;28;20105;-79
2021/07/18 04:11:18;;;;;;;24.13;13.20;;;41.90;45.80;;;;;;4995112;28;20038;-79
2021/07/18 04:13:43;;;;;;;16.42;12.38;;;42.30;45.30;;;;;;4995139;28;20037;-79
2021/07/18 04:16:09;;;;;;;16.65;11.70;;;42.60;44.90;;;;;;4995070;28;20101;-80
2021/07/18 04:18:35;;;;;;;17.58;12.50;;;42.80;44.40;;;;;;4995058;28;20034;-79
2021/07/18 04:21:01;;;;;;;18.00;12.05;;;43.10;44.10;;;;;;4995687;28;20026;-82
2021/07/18 04:23:27;;;;;;;18.35;13.43;;;43.50;43.80;;;;;;4978035;28;20544;-81
2021/07/18 04:25:53;;;;;;;17.92;12.35;;;43.80;43.30;;;;;;4995363;28;20106;-82
2021/07/18 04:28:18;;;;;;;14.18;12.68;;;44.10;42.90;;;;;;4994957;28;20031;-78
2021/07/18 04:30:44;;;;;;;22.33;12.75;;;44.50;42.40;;;;;;4976605;28;20464;-77
2021/07/18 04:33:10;;;;;;;16.30;12.35;;;44.80;42.10;;;;;;4994028;28;20030;-77
2021/07/18 04:35:36;;;;;;;16.67;13.02;;;45.00;41.90;;;;;;4994914;28;20026;-78
2021/07/18 04:38:03;;;;;;;14.00;12.55;;;45.10;41.60;;;;;;4995088;28;20029;-78
2021/07/18 04:40:30;;;;;;;18.05;13.63;;;45.30;41.30;;;;;;4994278;28;20034;-78
2021/07/18 04:42:55;;;;;;;18.52;13.20;;;45.50;41.00;;;;;;4994786;28;20476;-78
2021/07/18 04:45:21;;;;;;;15.80;12.35;;;45.70;40.80;;;;;;4994456;28;20108;-78
2021/07/18 04:47:52;;;;;;;19.70;12.88;;;46.00;40.60;;;;;;4977059;28;20022;-77
2021/07/18 04:50:19;;;;;;;14.52;12.80;;;46.20;40.30;;;;;;4994272;28;20053;-77
2021/07/18 04:52:45;;;;;;;14.93;12.80;;;46.40;40.10;;;;;;4977155;28;20034;-78
2021/07/18 04:55:12;;;;;;;19.23;13.05;;;46.50;39.80;;;;;;4994279;28;20026;-77
2021/07/18 04:57:38;;;;;;;22.00;19.88;;;46.70;39.60;;;;;;4994302;28;20341;-78
2021/07/18 05:00:06;;;;;;;16.00;13.30;;;47.00;39.30;;;;;;4977174;28;20034;-79
2021/07/18 05:02:32;;;;;;;14.30;12.80;;;47.10;39.00;;;;;;4978676;28;20423;-78
2021/07/18 05:04:58;;;;;;;14.77;12.73;;;47.40;38.90;;;;;;4995792;28;20038;-77
2021/07/18 05:07:24;;;;;;;14.30;12.82;;;47.60;38.70;;;;;;4994406;28;20050;-77
2021/07/18 05:09:49;;;;;;;14.93;13.40;;;47.80;38.50;;;;;;4993855;28;20042;-77
2021/07/18 05:12:15;;;;;;;13.63;12.13;;;47.90;38.30;;;;;;4993788;28;20033;-78
2021/07/18 05:14:42;;;;;;;15.55;12.65;;;48.20;38.20;;;;;;4993943;28;20026;-78
2021/07/18 05:17:09;;;;;;;14.68;12.82;;;48.20;38.00;;;;;;4976785;28;20029;-78
2021/07/18 05:19:35;;;;;;;16.30;13.20;;;48.40;38.00;;;;;;4993891;28;20034;-78
2021/07/18 05:22:00;;;;;;;14.32;12.93;;;48.50;37.70;;;;;;4993565;28;20022;-78
2021/07/18 05:24:26;;;;;;;16.63;13.70;;;48.70;37.60;;;;;;4993964;28;20026;-80
2021/07/18 05:26:52;;;;;;;14.73;13.18;;;48.90;37.40;;;;;;4993398;28;20030;-74
2021/07/18 05:29:18;;;;;;;19.25;13.93;;;49.10;37.20;;;;;;4993271;28;20022;-73
2021/07/18 05:31:45;;;;;;;18.15;14.32;;;49.30;37.10;;;;;;4993224;28;20380;-74
2021/07/18 05:34:11;;;;;;;18.13;14.18;;;49.50;37.00;;;;;;4993236;28;20683;-75
2021/07/18 05:36:37;;;;;;;18.88;14.98;;;49.70;36.90;;;;;;4976825;28;20869;-76
2021/07/18 05:39:04;;;;;;;23.92;14.82;;;49.80;37.40;;;;;;4994159;28;20487;-76
2021/07/18 05:41:30;;;;;;;16.52;13.65;;;50.00;36.50;;;;;;4994248;28;20030;-77
2021/07/18 05:43:56;;;;;;;16.55;14.05;;;50.20;36.40;;;;;;4976803;28;20018;-77
2021/07/18 05:46:22;;;;;;;15.68;14.02;;;50.40;36.30;;;;;;4994112;28;20018;-76
2021/07/18 05:48:47;;;;;;;17.40;13.70;;;50.60;36.00;;;;;;4993523;28;20030;-76
2021/07/18 05:51:13;;;;;;;14.98;13.48;;;50.70;35.90;;;;;;4994013;28;20042;-76
2021/07/18 05:53:39;;;;;;;17.15;13.95;;;50.80;35.70;;;;;;4993756;28;20034;-77
2021/07/18 05:56:05;;;;;;;24.90;19.40;;;50.90;35.60;;;;;;4993964;28;20383;-76
2021/07/18 05:58:31;;;;;;;17.38;14.43;;;51.00;35.50;;;;;;4992644;28;20029;-73
2021/07/18 06:00:56;;;;;;;18.52;13.77;;;51.20;35.50;;;;;;4992504;28;20141;-74
2021/07/18 06:03:22;;;;;;;18.73;14.90;;;51.30;35.30;;;;;;4992803;28;20045;-75
2021/07/18 06:05:48;;;;;;;19.67;13.93;;;51.50;35.20;;;;;;4992542;28;20018;-75
2021/07/18 06:08:13;;;;;;;20.50;14.73;;;51.70;35.10;;;;;;4973692;28;20022;-75
2021/07/18 06:10:40;;;;;;;17.65;13.30;;;51.70;34.90;;;;;;4990987;28;20540;-74
2021/07/18 06:13:05;;;;;;;19.08;14.52;;;51.80;35.40;;;;;;4990973;28;20029;-74
2021/07/18 06:15:32;;;;;;;28.98;13.65;;;51.80;34.60;;;;;;4991109;28;20031;-74
2021/07/18 06:17:57;;;;;;;15.23;13.07;;;51.90;34.60;;;;;;4990772;28;20030;-74
2021/07/18 06:20:23;;;;;;;16.77;12.50;;;52.00;34.30;;;;;;4990496;28;20108;-74
2021/07/18 06:22:51;;;;;;;18.27;12.82;;;52.00;33.90;;;;;;4973741;28;20072;-74
2021/07/18 06:25:17;;;;;;;21.30;13.10;;;52.00;33.90;;;;;;4988553;28;20088;-73
2021/07/18 06:27:43;;;;;;;21.00;13.45;;;52.00;34.20;;;;;;4990980;28;20023;-73
2021/07/18 06:30:13;;;;;;;19.30;13.30;;;52.00;33.90;;;;;;4990813;28;20026;-73
2021/07/18 06:32:40;;;;;;;16.05;13.43;;;52.00;34.00;;;;;;4988797;28;20460;-74
2021/07/18 06:35:07;;;;;;;13.57;12.02;;;52.00;33.90;;;;;;4990931;28;20161;-74
2021/07/18 06:37:33;;;;;;;13.98;12.02;;;52.00;33.80;;;;;;4990670;28;20077;-74
2021/07/18 06:40:00;;;;;;;15.48;12.13;;;52.10;33.80;;;;;;4989987;28;20441;-74
2021/07/18 06:42:26;;;;;;;16.67;12.48;;;52.00;33.50;;;;;;4990548;28;20084;-75
2021/07/18 06:44:51;;;;;;;18.13;11.73;;;52.00;33.70;;;;;;4991724;28;20762;-74
2021/07/18 06:47:17;;;;;;;13.65;12.10;;;51.80;33.70;;;;;;4992200;28;20027;-77
2021/07/18 06:49:43;;;;;;;16.08;11.90;;;51.70;33.70;;;;;;4991869;28;20027;-76
2021/07/18 06:52:09;;;;;;;14.77;12.18;;;51.50;33.90;;;;;;4992860;28;20092;-77
2021/07/18 06:54:34;;;;;;;18.15;12.55;;;51.40;34.00;;;;;;4992112;28;20031;-77
2021/07/18 06:57:00;;;;;;;13.00;11.52;;;51.00;34.10;;;;;;4996029;28;20034;-77
2021/07/18 06:59:26;;;;;;;14.90;11.23;;;50.50;34.10;;;;;;4996263;28;20069;-77
2021/07/18 07:01:52;;;;;;;15.82;11.02;;;50.20;34.20;;;;;;4996104;28;20018;-79
2021/07/18 07:04:17;;;;;;;14.93;11.60;;;49.90;34.30;;;;;;4995768;28;20030;-78
2021/07/18 07:06:43;;;;;;;14.05;10.68;;;49.80;34.50;;;;;;4978401;28;20069;-79
2021/07/18 07:09:09;;;;;;;14.40;11.13;;;49.90;34.80;;;;;;4995909;28;20039;-78
2021/07/18 07:11:34;;;;;;;12.35;10.43;;;50.00;34.60;;;;;;4996131;28;20046;-78
2021/07/18 07:14:00;;;;;;;13.65;10.68;;;50.00;34.60;;;;;;4995978;28;20034;-79
2021/07/18 07:16:26;;;;;;;12.18;10.73;;;50.10;34.50;;;;;;4995396;28;20173;-79
2021/07/18 07:18:51;;;;;;;20.10;11.77;;;50.10;34.60;;;;;;4995540;28;20041;-79
2021/07/18 07:21:17;;;;;;;16.13;12.32;;;50.30;34.80;;;;;;4978781;28;20050;-80
2021/07/18 07:23:43;;;;;;;15.02;10.60;;;50.30;34.70;;;;;;4995308;28;20026;-78
2021/07/18 07:26:09;;;;;;;12.75;10.85;;;50.40;34.80;;;;;;4995662;28;20034;-80
2021/07/18 07:28:35;;;;;;;12.88;11.30;;;50.30;34.80;;;;;;4995569;28;20417;-78
2021/07/18 07:31:02;;;;;;;17.48;11.35;;;50.20;35.50;;;;;;4977593;28;20101;-80
2021/07/18 07:33:29;;;;;;;12.95;10.82;;;50.10;35.80;;;;;;4994370;28;20149;-77
2021/07/18 07:35:55;;;;;;;14.93;11.25;;;49.90;36.00;;;;;;4994492;28;20026;-79
2021/07/18 07:38:20;;;;;;;13.75;11.65;;;49.60;36.30;;;;;;4994827;28;20038;-75
2021/07/18 07:40:47;;;;;;;14.82;11.18;;;49.30;36.80;;;;;;4994380;28;20106;-78
2021/07/18 07:43:13;;;;;;;11.80;10.48;;;49.10;37.00;;;;;;4994202;28;20045;-77
2021/07/18 07:45:39;;;;;;;15.48;11.90;;;48.90;36.80;;;;;;4994626;28;20026;-74
2021/07/18 07:48:05;;;;;;;12.40;11.15;;;48.70;36.90;;;;;;4994638;28;20033;-79
2021/07/18 07:50:31;;;;;;;12.25;10.27;;;48.60;36.90;;;;;;4994397;28;20388;-78
2021/07/18 07:52:57;;;;;;;14.32;10.77;;;48.50;37.20;;;;;;4976425;28;20038;-78
2021/07/18 07:55:24;;;;;;;10.68;9.50;;;48.20;37.20;;;;;;4994281;28;20030;-79
2021/07/18 07:57:50;;;;;;;14.20;8.77;;;48.00;36.90;;;;;;4994173;28;20519;-78
2021/07/18 08:00:17;;;;;;;9.13;8.32;;;47.70;36.50;;;;;;4994803;28;20391;-79
2021/07/18 08:02:49;;;;;;;15.32;9.82;;;47.50;36.00;;;;;;4994752;28;20782;-79
2021/07/18 08:05:16;;;;;;;12.48;8.68;;;47.20;36.00;;;;;;4995142;28;20058;-79
2021/07/18 08:07:42;;;;;;;11.07;8.70;;;46.70;35.90;;;;;;4994581;28;20492;-78
2021/07/18 08:10:14;;;;;;;14.10;9.05;;;46.10;36.00;;;;;;4994164;28;20033;-79
2021/07/18 08:12:41;;;;;;;10.82;8.20;;;45.40;36.70;;;;;;4994217;28;20077;-78
2021/07/18 08:15:08;;;;;;;9.00;8.20;;;45.10;37.00;;;;;;4994527;28;20112;-79
2021/07/18 08:17:35;;;;;;;8.30;7.57;;;44.90;37.30;;;;;;4977138;28;20026;-78
2021/07/18 08:20:09;;;;;;;10.48;8.00;;;44.50;37.40;;;;;;4977147;28;20045;-79
2021/07/18 08:22:36;;;;;;;9.30;8.32;;;44.40;37.70;;;;;;4994387;28;20026;-78
2021/07/18 08:25:02;;;;;;;12.43;8.52;;;44.10;38.20;;;;;;4993820;28;20027;-78
2021/07/18 08:27:27;;;;;;;9.70;8.18;;;43.90;38.10;;;;;;4994518;28;20111;-78
2021/07/18 08:29:54;;;;;;;8.55;7.85;;;43.70;38.10;;;;;;4994210;28;20037;-78
2021/07/18 08:32:20;;;;;;;10.07;7.80;;;43.30;38.40;;;;;;5013033;28;20030;-78
2021/07/18 08:34:49;;;;;;;10.52;8.02;;;43.00;38.60;;;;;;4997914;28;20045;-82
2021/07/18 08:37:14;;;;;;;11.05;7.68;;;42.70;38.90;;;;;;4995552;28;20069;-79
2021/07/18 08:39:41;;;;;;;8.48;7.57;;;42.60;39.30;;;;;;4993976;28;20074;-80
2021/07/18 08:42:15;;;;;;;11.40;8.25;;;42.50;39.60;;;;;;4976474;28;20027;-78
2021/07/18 08:44:41;;;;;;;9.48;8.07;;;42.50;39.50;;;;;;4993371;28;20026;-79
2021/07/18 08:47:07;;;;;;;13.35;7.90;;;42.30;39.80;;;;;;4993409;28;20025;-79
2021/07/18 08:49:33;;;;;;;8.98;8.02;;;42.30;39.80;;;;;;4993260;28;20503;-78
2021/07/18 08:51:59;;;;;;;10.65;8.57;;;42.20;39.70;;;;;;4992888;28;20128;-79
2021/07/18 08:54:26;;;;;;;11.70;7.93;;;42.20;40.00;;;;;;4993560;28;20026;-78
2021/07/18 08:56:56;;;;;;;9.90;6.97;;;42.20;39.80;;;;;;4992847;28;20129;-79
2021/07/18 08:59:21;;;;;;;14.82;7.55;;;42.20;39.70;;;;;;5008217;28;20030;-79
2021/07/18 09:01:47;;;;;;;36.53;8.40;;;42.10;39.60;;;;;;4975862;28;20357;-79
2021/07/18 09:04:13;;;;;;;11.40;7.40;;;41.90;39.60;;;;;;4993558;28;20022;-79
2021/07/18 09:06:40;;;;;;;7.68;6.97;;;41.90;39.40;;;;;;4992781;28;20045;-78
2021/07/18 09:09:08;;;;;;;9.88;7.32;;;41.80;39.20;;;;;;4975509;28;20045;-78
2021/07/18 09:11:34;;;;;;;8.32;7.43;;;41.70;39.20;;;;;;4992278;28;20030;-77
2021/07/18 09:14:02;;;;;;;9.73;7.30;;;41.70;39.10;;;;;;4975413;28;20030;-77
2021/07/18 09:16:40;;;;;;;13.95;7.45;;;41.60;39.00;;;;;;5007677;28;20037;-78
2021/07/18 09:19:15;;;;;;;7.78;6.80;;;41.50;38.80;;;;;;4991671;28;20026;-77
2021/07/18 09:21:56;;;;;;;8.90;6.22;;;41.50;39.00;;;;;;4974925;28;20038;-78
2021/07/18 09:24:52;;;;;;;14.88;8.10;;;41.40;38.80;;;;;;4975004;28;20034;-78
2021/07/18 09:27:27;;;;;;;10.25;7.82;;;41.40;38.90;;;;;;4975329;28;20035;-79
2021/07/18 09:29:55;;;;;;;8.60;6.82;;;41.30;39.30;;;;;;4992256;28;20037;-78
2021/07/18 09:32:29;;;;;;;7.75;7.15;;;41.30;39.40;;;;;;4992005;28;20125;-77
2021/07/18 09:35:06;;;;;;;11.07;7.95;;;41.00;39.20;;;;;;4974796;28;20125;-77
2021/07/18 09:37:37;;;;;;;8.40;7.65;;;40.90;39.60;;;;;;4991967;28;20101;-78
2021/07/18 09:40:17;;;;;;;9.15;8.25;;;40.80;39.90;;;;;;4992227;28;20088;-78
2021/07/18 09:42:56;;;;;;;9.02;8.10;;;40.60;40.20;;;;;;4991912;28;20023;-78
2021/07/18 09:45:30;;;;;;;21.10;8.70;;;40.60;40.50;;;;;;4974441;28;20784;-78
2021/07/18 09:48:07;;;;;;;10.18;8.75;;;40.50;40.20;;;;;;4992444;28;20034;-78
2021/07/18 09:50:34;;;;;;;9.32;8.43;;;40.40;40.20;;;;;;4992124;28;20457;-79
2021/07/18 09:53:18;;;;;;;10.15;8.68;;;40.30;40.20;;;;;;4991618;28;20101;-78
2021/07/18 09:56:06;;;;;;;12.75;9.15;;;40.20;40.30;;;;;;4991921;28;20022;-77
2021/07/18 09:58:32;;;;;;;14.48;9.18;;;40.00;41.00;;;;;;4991852;28;20030;-78
2021/07/18 10:01:00;;;;;;;13.40;8.30;;;39.90;41.50;;;;;;4991922;28;20050;-78
2021/07/18 10:03:27;;;;;;;10.20;8.70;;;39.80;41.20;;;;;;4991922;28;20023;-77
2021/07/18 10:06:09;;;;;;;11.15;8.40;;;39.70;41.20;;;;;;4991667;28;20101;-77
2021/07/18 10:08:45;;;;;;;9.98;8.45;;;39.60;41.20;;;;;;4992031;28;20022;-77
2021/07/18 10:11:14;;;;;;;11.00;8.57;;;39.60;41.20;;;;;;4991450;28;20018;-77
2021/07/18 10:13:42;;;;;;;14.75;8.73;;;39.60;41.00;;;;;;4991816;28;20069;-76
2021/07/18 10:16:08;;;;;;;10.65;8.85;;;39.50;41.50;;;;;;4991590;28;20583;-79
2021/07/18 10:18:39;;;;;;;10.85;8.63;;;39.40;42.00;;;;;;4991666;28;20034;-78
2021/07/18 10:21:07;;;;;;;14.13;8.73;;;39.50;42.20;;;;;;4991177;28;20130;-78
2021/07/18 10:23:39;;;;;;;16.70;9.40;;;39.40;42.20;;;;;;4991730;28;20032;-77
2021/07/18 10:26:06;;;;;;;17.15;9.95;;;39.40;42.20;;;;;;4992142;28;20020;-78
2021/07/18 10:28:32;;;;;;;11.05;8.73;;;39.30;42.00;;;;;;4991329;28;20048;-78
2021/07/18 10:31:05;;;;;;;12.63;9.88;;;39.20;42.40;;;;;;4991251;28;20058;-78
2021/07/18 10:33:31;;;;;;;16.45;11.73;;;39.20;42.40;;;;;;4991624;28;20038;-78
2021/07/18 10:36:01;;;;;;;14.05;9.05;;;39.20;42.40;;;;;;4991317;28;20511;-78
2021/07/18 10:38:27;;;;;;;10.48;9.20;;;39.10;42.20;;;;;;4991690;28;20061;-77
2021/07/18 10:40:55;;;;;;;13.75;10.00;;;39.00;42.60;;;;;;4991499;28;20030;-77
2021/07/18 10:43:44;;;;;;;17.40;9.57;;;38.80;43.20;;;;;;4991235;28;20030;-77
2021/07/18 10:46:15;;;;;;;11.40;9.50;;;38.60;43.70;;;;;;4991391;28;20511;-77
2021/07/18 10:48:52;;;;;;;12.80;9.73;;;38.50;44.00;;;;;;4991514;28;20446;-78
2021/07/18 10:51:34;;;;;;;13.85;9.15;;;38.50;44.10;;;;;;4990848;28;20065;-77
2021/07/18 10:54:14;;;;;;;13.35;9.75;;;38.50;43.90;;;;;;4991452;28;20031;-78
2021/07/18 10:56:41;;;;;;;13.47;9.40;;;38.50;44.00;;;;;;4991658;28;20445;-77
2021/07/18 10:59:07;;;;;;;12.38;9.30;;;38.60;43.90;;;;;;4991275;28;20082;-77
2021/07/18 11:01:38;;;;;;;13.07;9.20;;;38.60;43.50;;;;;;4991284;28;20181;-78
2021/07/18 11:04:05;;;;;;;19.95;9.45;;;38.60;43.30;;;;;;4991264;28;20027;-78
2021/07/18 11:06:33;;;;;;;11.13;8.63;;;38.60;43.60;;;;;;4991357;28;20050;-77
2021/07/18 11:09:11;;;;;;;10.00;8.63;;;38.60;43.70;;;;;;4991171;28;20030;-76
2021/07/18 11:11:37;;;;;;;11.68;9.00;;;38.50;43.40;;;;;;4990806;28;20037;-77
2021/07/18 11:14:25;;;;;;;11.43;8.88;;;38.40;43.40;;;;;;4991135;28;20384;-77
2021/07/18 11:16:56;;;;;;;10.20;9.00;;;38.40;43.70;;;;;;4991644;28;20040;-77
2021/07/18 11:19:40;;;;;;;11.80;8.98;;;38.30;43.90;;;;;;4991394;28;20042;-78
2021/07/18 11:22:08;;;;;;;26.15;17.88;;;38.30;43.90;;;;;;4991811;28;20045;-78
2021/07/18 11:24:55;;;;;;;16.35;11.95;;;38.30;44.00;;;;;;4992104;28;20032;-79
2021/07/18 11:27:44;;;;;;;13.88;9.35;;;38.30;44.20;;;;;;4974364;28;20357;-78
2021/07/18 11:30:37;;;;;;;9.85;8.85;;;38.40;44.20;;;;;;4991479;28;20083;-79
2021/07/18 11:33:29;;;;;;;18.13;9.80;;;38.30;43.60;;;;;;4991487;28;20030;-80
2021/07/18 11:35:56;;;;;;;12.00;9.05;;;38.30;43.70;;;;;;4991104;28;20030;-79
2021/07/18 11:38:23;;;;;;;16.70;10.90;;;38.30;43.90;;;;;;5006089;28;20038;-79
2021/07/18 11:40:50;;;;;;;10.45;9.38;;;38.30;44.00;;;;;;4992453;28;20077;-79
2021/07/18 11:43:16;;;;;;;14.70;10.10;;;38.30;44.20;;;;;;4994994;28;20030;-79
2021/07/18 11:45:43;;;;;;;14.90;9.70;;;38.30;44.20;;;;;;4994470;28;20098;-78
2021/07/18 11:48:09;;;;;;;10.60;9.50;;;38.30;44.20;;;;;;4994527;28;20022;-77
2021/07/18 11:50:35;;;;;;;11.00;9.13;;;38.30;43.80;;;;;;4994327;28;20076;-78
2021/07/18 11:53:02;;;;;;;14.43;8.63;;;38.30;43.80;;;;;;4976701;28;20050;-77
2021/07/18 11:55:29;;;;;;;17.40;8.85;;;38.20;43.70;;;;;;4994207;28;20040;-77
2021/07/18 11:57:55;;;;;;;11.00;8.55;;;38.20;43.90;;;;;;4994485;28;20057;-78
2021/07/18 12:00:21;;;;;;;11.98;8.40;;;38.10;43.90;;;;;;4994063;28;20162;-78
2021/07/18 12:02:47;;;;;;;14.18;8.90;;;38.10;43.80;;;;;;4994016;28;20045;-78
2021/07/18 12:05:13;;;;;;;15.38;8.90;;;38.10;44.00;;;;;;4993575;28;20022;-78
2021/07/18 12:07:39;;;;;;;16.02;8.95;;;38.10;44.10;;;;;;4994006;28;20333;-78
2021/07/18 12:10:16;;;;;;;14.88;8.98;;;38.00;44.20;;;;;;4994244;28;20035;-78
2021/07/18 12:12:49;;;;;;;11.68;8.48;;;37.90;44.00;;;;;;4995331;28;20109;-76
2021/07/18 12:15:15;;;;;;;11.98;8.93;;;37.90;44.30;;;;;;4993904;28;20134;-78
2021/07/18 12:17:41;;;;;;;10.80;9.10;;;37.90;44.10;;;;;;4993723;28;20547;-78
2021/07/18 12:20:08;;;;;;;9.57;8.68;;;37.80;44.30;;;;;;4993748;28;20431;-78
2021/07/18 12:22:35;;;;;;;9.55;8.43;;;37.70;44.50;;;;;;4993862;28;20050;-77
2021/07/18 12:25:00;;;;;;;10.90;9.80;;;37.70;44.30;;;;;;4993479;28;20097;-77
2021/07/18 12:27:28;;;;;;;9.65;8.48;;;37.50;43.90;;;;;;4994081;28;20117;-78
2021/07/18 12:29:56;;;;;;;12.85;9.05;;;37.30;44.20;;;;;;4994006;28;20023;-78
2021/07/18 12:32:30;;;;;;;10.43;8.98;;;37.10;44.50;;;;;;4994128;28;20127;-78